Time;durP1;ratioP1;P1;durP2;ratioP2;P2;SDS_P1;SDS_P2;PMS_P1;PMS_P2;Temp;Humidity;BMP_temperature;BMP_pressure;BME280_temperature;BME280_humidity;BME280_pressure;Samples;Min_cycle;Max_cycle;Signal;HPM_P1;HPM_P2
2024/01/08 00:02:11;;;;;;;19.40;10.20;;;;;;;-3.74;58.76;99396.38;232297;197;137308;-50
2024/01/08 00:07:14;;;;;;;20.60;10.00;;;;;;;-3.75;58.67;99400.34;231610;204;138686;-50
2024/01/08 00:12:17;;;;;;;18.20;10.30;;;;;;;-3.79;58.75;99400.19;232447;204;153185;-51
2024/01/08 00:17:20;;;;;;;19.70;10.70;;;;;;;-3.83;58.93;99404.69;232451;198;137554;-50
2024/01/08 00:22:24;;;;;;;19.40;10.10;;;;;;;-3.83;59.06;99414.91;232434;204;137325;-52
2024/01/08 00:27:27;;;;;;;17.60;10.30;;;;;;;-3.85;59.10;99411.79;232465;204;153551;-52
2024/01/08 00:32:30;;;;;;;19.00;9.80;;;;;;;-3.86;59.28;99412.83;231516;198;138781;-51
2024/01/08 00:37:43;;;;;;;20.70;10.80;;;;;;;-3.87;59.29;99418.38;232044;201;138911;-53
2024/01/08 00:42:47;;;;;;;20.30;10.30;;;;;;;-3.86;59.33;99431.89;231043;201;153827;-50
2024/01/08 00:47:50;;;;;;;20.00;10.60;;;;;;;-3.87;59.12;99437.95;232195;197;138879;-51
2024/01/08 00:52:53;;;;;;;19.10;10.40;;;;;;;-3.90;58.52;99439.16;232408;200;140924;-51
2024/01/08 00:57:58;;;;;;;20.60;10.70;;;;;;;-3.94;58.42;99439.31;232352;204;153886;-52
2024/01/08 01:03:02;;;;;;;16.90;9.50;;;;;;;-3.97;58.49;99441.73;232233;204;141218;-52
2024/01/08 01:08:05;;;;;;;18.00;10.30;;;;;;;-4.06;58.57;99448.64;232079;201;139170;-50
2024/01/08 01:13:09;;;;;;;19.40;9.80;;;;;;;-4.12;58.69;99454.86;232307;198;155471;-50
2024/01/08 01:18:12;;;;;;;19.10;9.20;;;;;;;-4.17;59.00;99462.29;232259;204;137220;-52
2024/01/08 01:23:15;;;;;;;20.70;10.30;;;;;;;-4.19;59.06;99462.79;232242;197;138715;-52
2024/01/08 01:28:19;;;;;;;19.60;10.10;;;;;;;-4.20;59.04;99465.40;230831;204;153877;-53
2024/01/08 01:33:22;;;;;;;19.90;10.30;;;;;;;-4.19;58.98;99473.18;231044;196;141138;-49
2024/01/08 01:38:25;;;;;;;19.20;9.20;;;;;;;-4.21;59.12;99470.58;232389;204;138121;-53
2024/01/08 01:43:29;;;;;;;16.10;9.80;;;;;;;-4.26;58.97;99479.39;232388;204;153922;-51
2024/01/08 01:48:32;;;;;;;18.90;10.30;;;;;;;-4.29;59.09;99485.61;231667;198;142407;-49
2024/01/08 01:53:36;;;;;;;19.50;10.20;;;;;;;-4.29;59.17;99486.30;230528;201;139445;-48
2024/01/08 01:58:40;;;;;;;20.90;10.20;;;;;;;-4.27;59.22;99487.35;231633;201;153339;-50
2024/01/08 02:03:43;;;;;;;17.60;9.40;;;;;;;-4.26;59.18;99491.86;232334;201;138183;-53
2024/01/08 02:08:47;;;;;;;20.40;10.50;;;;;;;-4.29;58.98;99495.84;232226;200;137658;-52
2024/01/08 02:13:50;;;;;;;16.80;10.20;;;;;;;-4.31;59.07;99498.60;231632;198;153308;-50
2024/01/08 02:18:53;;;;;;;19.30;9.60;;;;;;;-4.30;59.20;99505.36;232258;198;137213;-52
2024/01/08 02:23:57;;;;;;;20.30;10.40;;;;;;;-4.33;59.25;99506.73;232103;201;138835;-54
2024/01/08 02:29:01;;;;;;;17.40;9.60;;;;;;;-4.34;59.35;99513.30;232300;204;153340;-53
2024/01/08 02:34:05;;;;;;;21.50;10.50;;;;;;;-4.36;59.40;99518.31;231803;197;138743;-49
2024/01/08 02:39:08;;;;;;;22.90;11.30;;;;;;;-4.41;59.48;99519.33;232447;201;151697;-50
2024/01/08 02:44:11;;;;;;;19.40;10.30;;;;;;;-4.38;59.63;99520.89;232566;201;153100;-51
2024/01/08 02:49:15;;;;;;;21.20;10.80;;;;;;;-4.39;59.76;99518.30;231615;204;138695;-49
2024/01/08 02:54:18;;;;;;;19.00;10.30;;;;;;;-4.40;59.75;99521.92;231115;197;141339;-52
2024/01/08 02:59:21;;;;;;;19.80;10.80;;;;;;;-4.42;59.87;99528.49;232161;201;153091;-49
2024/01/08 03:04:25;;;;;;;20.50;10.80;;;;;;;-4.44;59.75;99531.44;231554;201;139092;-48
2024/01/08 03:09:28;;;;;;;20.90;10.80;;;;;;;-4.44;59.51;99533.68;231614;198;138751;-48
2024/01/08 03:14:31;;;;;;;20.60;10.60;;;;;;;-4.46;59.05;99540.42;232302;201;153772;-52
2024/01/08 03:19:35;;;;;;;24.40;10.60;;;;;;;-4.49;59.16;99541.61;232496;204;138077;-53
2024/01/08 03:24:38;;;;;;;21.80;11.20;;;;;;;-4.57;59.04;99549.01;232562;200;138036;-51
2024/01/08 03:29:41;;;;;;;20.00;11.00;;;;;;;-4.61;59.10;99551.57;232297;204;153311;-51
2024/01/08 03:34:46;;;;;;;18.30;10.40;;;;;;;-4.63;58.93;99560.55;231988;204;139357;-53
2024/01/08 03:39:49;;;;;;;20.10;10.90;;;;;;;-4.66;58.61;99563.13;230921;201;138193;-50
2024/01/08 03:44:52;;;;;;;20.50;10.60;;;;;;;-4.63;58.51;99562.46;230686;202;155193;-50
2024/01/08 03:49:56;;;;;;;18.30;10.00;;;;;;;-4.62;58.39;99573.02;232519;204;137118;-51
2024/01/08 03:54:59;;;;;;;19.30;10.40;;;;;;;-4.64;58.58;99576.64;232476;204;138180;-51
2024/01/08 04:00:03;;;;;;;17.40;9.30;;;;;;;-4.66;58.46;99580.44;232308;204;154180;-51
2024/01/08 04:05:12;;;;;;;21.00;10.50;;;;;;;-4.70;58.26;99587.85;232270;201;137429;-54
2024/01/08 04:10:16;;;;;;;22.70;11.00;;;;;;;-4.72;58.28;99598.92;232076;204;137899;-52
2024/01/08 04:15:19;;;;;;;17.40;10.30;;;;;;;-4.70;58.15;99601.70;231593;201;153625;-51
2024/01/08 04:20:22;;;;;;;18.60;10.60;;;;;;;-4.67;57.81;99601.38;232044;203;138181;-53
2024/01/08 04:25:26;;;;;;;19.40;10.30;;;;;;;-4.66;57.55;99604.33;232464;201;138077;-52
2024/01/08 04:30:29;;;;;;;21.20;10.80;;;;;;;-4.67;57.13;99606.75;231573;204;153014;-52
2024/01/08 04:35:32;;;;;;;17.60;10.00;;;;;;;-4.69;57.23;99616.41;232259;198;150573;-52
2024/01/08 04:40:36;;;;;;;21.20;11.00;;;;;;;-4.70;57.18;99626.96;232383;204;138075;-52
2024/01/08 04:45:39;;;;;;;18.40;10.00;;;;;;;-4.71;57.42;99639.25;231923;197;153927;-52
2024/01/08 04:50:42;;;;;;;21.80;10.90;;;;;;;-4.70;57.26;99639.43;232229;197;137901;-53
2024/01/08 04:55:45;;;;;;;18.60;10.30;;;;;;;-4.70;57.24;99645.66;232538;201;138127;-52
2024/01/08 05:00:48;;;;;;;17.90;10.30;;;;;;;-4.71;57.15;99647.73;232459;197;154497;-54
2024/01/08 05:05:51;;;;;;;18.80;10.10;;;;;;;-4.74;57.34;99654.27;232381;201;137014;-53
2024/01/08 05:10:55;;;;;;;18.50;10.50;;;;;;;-4.73;56.99;99649.27;231748;197;142028;-53
2024/01/08 05:15:58;;;;;;;19.20;10.80;;;;;;;-4.74;57.00;99661.21;232229;201;153753;-54
2024/01/08 05:21:03;;;;;;;18.00;10.90;;;;;;;-4.75;57.01;99666.04;232007;204;138728;-52
2024/01/08 05:26:07;;;;;;;;;;;;;;;-4.77;57.01;99675.36;231248;204;154416;-51
2024/01/08 05:31:10;;;;;;;18.80;9.70;;;;;;;-4.82;56.80;99683.98;232517;204;153681;-53
2024/01/08 05:36:13;;;;;;;18.90;10.60;;;;;;;-4.86;56.77;99689.80;231584;197;137737;-49
2024/01/08 05:41:18;;;;;;;16.90;9.80;;;;;;;-4.84;56.88;99691.20;231288;197;138990;-51
2024/01/08 05:46:22;;;;;;;20.30;10.70;;;;;;;-4.83;56.74;99700.73;232519;204;153409;-54
2024/01/08 05:51:29;;;;;;;20.00;10.30;;;;;;;-4.82;56.48;99701.63;232460;203;138426;-53
2024/01/08 05:56:32;;;;;;;19.60;10.10;;;;;;;-4.81;56.73;99706.83;231806;197;137754;-53
2024/01/08 06:01:35;;;;;;;18.90;10.80;;;;;;;-4.79;56.69;99713.42;232500;203;153239;-52
2024/01/08 06:06:38;;;;;;;18.30;10.70;;;;;;;-4.76;56.60;99715.86;232493;203;138315;-53
2024/01/08 06:11:42;;;;;;;21.10;10.90;;;;;;;-4.76;56.52;99720.73;231766;204;137888;-48
2024/01/08 06:16:45;;;;;;;20.40;11.10;;;;;;;-4.72;56.47;99730.80;232403;204;153722;-50
2024/01/08 06:21:48;;;;;;;20.30;11.10;;;;;;;-4.71;56.21;99742.07;232354;204;138018;-50
2024/01/08 06:26:52;;;;;;;18.70;11.20;;;;;;;-4.71;56.20;99746.91;232360;198;137712;-51
2024/01/08 06:31:55;;;;;;;20.30;10.80;;;;;;;-4.71;55.86;99755.39;232489;201;154490;-52
2024/01/08 06:36:58;;;;;;;20.40;10.50;;;;;;;-4.73;55.54;99760.56;232157;204;137637;-53
2024/01/08 06:42:02;;;;;;;17.10;9.40;;;;;;;-4.71;55.70;99764.73;230755;197;139139;-50
2024/01/08 06:47:05;;;;;;;266.80;158.90;;;;;;;-4.56;58.12;99769.56;232234;201;154496;-54
2024/01/08 06:52:08;;;;;;;31.90;18.00;;;;;;;-4.08;56.25;99778.52;232376;201;138752;-53
2024/01/08 06:57:12;;;;;;;20.70;11.30;;;;;;;-4.11;54.66;99783.86;232289;198;139792;-55
2024/01/08 07:02:15;;;;;;;17.10;10.00;;;;;;;-4.25;54.25;99784.42;232373;204;153477;-54
2024/01/08 07:07:18;;;;;;;18.70;11.00;;;;;;;-4.31;54.23;99789.41;231764;204;138791;-53
2024/01/08 07:12:21;;;;;;;19.80;10.20;;;;;;;-4.37;54.14;99793.67;232350;201;139176;-51
2024/01/08 07:17:25;;;;;;;18.00;9.60;;;;;;;-4.41;54.33;99808.52;231861;198;152910;-53
2024/01/08 07:22:28;;;;;;;16.20;9.60;;;;;;;-4.42;54.29;99818.73;232194;202;140043;-55
2024/01/08 07:27:32;;;;;;;18.60;10.20;;;;;;;-4.43;54.05;99814.20;232247;201;138233;-52
2024/01/08 07:32:35;;;;;;;142.90;75.90;;;;;;;-4.38;54.53;99821.89;232276;204;153100;-53
2024/01/08 07:37:42;;;;;;;27.30;13.90;;;;;;;-4.23;54.66;99831.39;232305;204;137773;-51
2024/01/08 07:42:45;;;;;;;21.20;10.10;;;;;;;-4.21;53.57;99838.17;231134;202;139198;-53
2024/01/08 07:47:48;;;;;;;19.00;9.70;;;;;;;-4.24;53.38;99847.67;230996;204;153635;-51
2024/01/08 07:52:52;;;;;;;18.00;9.80;;;;;;;-4.26;53.27;99851.45;232118;205;138095;-56
2024/01/08 07:57:55;;;;;;;19.10;9.60;;;;;;;-4.22;53.33;99859.29;231760;204;138654;-54
2024/01/08 08:02:59;;;;;;;17.60;9.90;;;;;;;-4.21;53.20;99865.53;232313;204;154005;-56
2024/01/08 08:08:03;;;;;;;18.10;10.30;;;;;;;-4.20;53.05;99873.70;231401;204;137883;-55
2024/01/08 08:13:06;;;;;;;16.70;10.00;;;;;;;-4.21;52.88;99881.83;232185;201;138196;-55
2024/01/08 08:18:09;;;;;;;16.50;9.90;;;;;;;-4.20;53.05;99891.70;230727;204;153085;-56
2024/01/08 08:23:12;;;;;;;18.10;9.80;;;;;;;-4.18;53.11;99899.52;232198;201;137826;-58
2024/01/08 08:28:16;;;;;;;18.60;9.90;;;;;;;-4.15;53.05;99907.36;232050;204;137683;-57
2024/01/08 08:33:19;;;;;;;17.50;9.60;;;;;;;-4.11;53.02;99911.91;232070;204;154993;-56
2024/01/08 08:38:22;;;;;;;22.90;13.40;;;;;;;-4.00;53.51;99919.64;232150;201;137448;-58
2024/01/08 08:43:27;;;;;;;16.10;10.00;;;;;;;-3.85;52.62;99926.21;231750;201;137943;-58
2024/01/08 08:48:30;;;;;;;18.50;9.90;;;;;;;-3.82;52.14;99934.73;231936;201;153280;-58
2024/01/08 08:53:34;;;;;;;524.30;288.20;;;;;;;-3.76;52.83;99939.32;231297;204;139327;-57
2024/01/08 08:58:37;;;;;;;37.20;20.40;;;;;;;-3.57;52.44;99943.15;231934;204;137723;-57
2024/01/08 09:03:41;;;;;;;19.50;11.30;;;;;;;-3.54;51.74;99948.71;231965;197;154103;-56
2024/01/08 09:08:44;;;;;;;19.70;10.90;;;;;;;-3.51;51.65;99953.42;232197;203;137187;-54
2024/01/08 09:13:48;;;;;;;99.10;63.10;;;;;;;-3.44;51.34;99963.73;232291;204;137533;-50
2024/01/08 09:18:51;;;;;;;21.40;12.20;;;;;;;-3.29;51.92;99965.77;232241;204;153125;-56
2024/01/08 09:23:55;;;;;;;16.00;9.90;;;;;;;-3.29;51.11;99965.23;232125;201;137523;-53
2024/01/08 09:28:58;;;;;;;16.40;9.30;;;;;;;-3.34;51.02;99960.34;232301;204;137533;-55
2024/01/08 09:34:01;;;;;;;16.20;9.70;;;;;;;-3.34;50.94;99963.12;232178;200;153215;-53
2024/01/08 09:39:04;;;;;;;15.40;9.40;;;;;;;-3.34;50.71;99963.29;232092;202;138237;-55
2024/01/08 09:44:08;;;;;;;17.20;9.40;;;;;;;-3.34;50.72;99963.30;232212;197;137634;-55
2024/01/08 09:49:12;;;;;;;18.50;9.50;;;;;;;-3.35;50.50;99964.85;232058;204;152984;-55
2024/01/08 09:54:20;;;;;;;17.20;9.60;;;;;;;-3.34;50.53;99964.34;232212;204;137557;-54
2024/01/08 09:59:25;;;;;;;18.40;9.90;;;;;;;-3.30;50.37;99963.15;232202;202;137417;-54
2024/01/08 10:04:29;;;;;;;15.30;9.80;;;;;;;-3.27;50.36;99964.92;232323;204;154441;-54
2024/01/08 10:09:33;;;;;;;18.80;9.60;;;;;;;-3.23;50.39;99971.02;232408;200;138233;-55
2024/01/08 10:14:36;;;;;;;15.40;9.00;;;;;;;-3.19;50.21;99974.70;232341;201;138093;-54
2024/01/08 10:19:40;;;;;;;17.00;9.20;;;;;;;-3.17;50.00;99981.15;231596;203;152240;-49
2024/01/08 10:24:46;;;;;;;18.10;9.80;;;;;;;-3.16;49.87;99978.89;231031;204;138775;-51
2024/01/08 10:29:49;;;;;;;15.30;9.40;;;;;;;-3.13;49.72;99979.63;231140;200;139041;-51
2024/01/08 10:34:53;;;;;;;16.60;9.40;;;;;;;-3.06;49.75;99978.81;231991;204;153955;-59
2024/01/08 10:39:57;;;;;;;19.20;10.20;;;;;;;-3.02;49.64;99977.96;232246;202;138171;-60
2024/01/08 10:45:00;;;;;;;15.70;9.40;;;;;;;-2.83;49.63;99974.80;232406;204;138250;-60
2024/01/08 10:50:05;;;;;;;18.60;9.60;;;;;;;-2.70;49.26;99979.06;232571;204;154989;-60
2024/01/08 10:55:13;;;;;;;18.50;10.00;;;;;;;-2.65;49.04;99976.32;232138;204;138752;-59
2024/01/08 11:00:17;;;;;;;19.30;9.40;;;;;;;-2.60;48.89;99978.61;231330;201;138797;-60
2024/01/08 11:05:21;;;;;;;19.00;10.00;;;;;;;-2.60;48.46;99982.44;231075;204;153296;-57
2024/01/08 11:10:28;;;;;;;16.60;9.20;;;;;;;-2.58;48.76;99980.02;231748;197;138663;-59
2024/01/08 11:15:31;;;;;;;17.50;9.60;;;;;;;-2.47;48.67;99980.42;232256;201;139272;-59
2024/01/08 11:20:39;;;;;;;15.00;9.30;;;;;;;-2.40;48.45;99987.07;232167;204;153538;-59
2024/01/08 11:25:49;;;;;;;16.90;9.60;;;;;;;-2.46;48.13;99990.16;232312;201;138166;-58
2024/01/08 11:31:03;;;;;;;16.50;9.70;;;;;;;-2.50;48.30;99991.88;232266;200;137582;-58
2024/01/08 11:36:17;;;;;;;16.20;9.50;;;;;;;-2.46;48.24;100000.23;232184;200;153345;-61
2024/01/08 11:41:20;;;;;;;19.00;10.10;;;;;;;-2.42;48.01;99998.01;232285;197;137456;-58
2024/01/08 11:46:23;;;;;;;14.20;9.10;;;;;;;-2.44;47.85;100008.42;231567;197;138832;-59
2024/01/08 11:51:27;;;;;;;17.10;9.90;;;;;;;-2.43;47.72;100008.94;232176;204;153373;-58
2024/01/08 11:56:30;;;;;;;18.00;10.40;;;;;;;-2.43;47.90;100013.29;232211;204;138877;-57
2024/01/08 12:01:33;;;;;;;18.10;10.40;;;;;;;-2.39;48.08;100024.08;231911;196;137771;-57
2024/01/08 12:06:37;;;;;;;20.40;11.50;;;;;;;-2.39;48.05;100029.64;231972;204;153907;-58
2024/01/08 12:11:40;;;;;;;21.60;12.00;;;;;;;-2.41;48.29;100032.25;232127;201;140774;-58
2024/01/08 12:16:43;;;;;;;23.90;13.50;;;;;;;-2.49;48.54;100036.53;232211;203;137448;-58
2024/01/08 12:22:05;;;;;;;28.40;13.60;;;;;;;-2.59;48.49;100047.23;232256;200;153320;-58
2024/01/08 12:27:09;;;;;;;22.90;12.60;;;;;;;-2.71;48.60;100058.42;232135;203;138416;-57
2024/01/08 12:32:14;;;;;;;22.80;13.10;;;;;;;-2.84;48.62;100065.44;232260;200;138193;-61
2024/01/08 12:37:19;;;;;;;;;;;;;;;-2.99;48.71;100064.42;232372;203;153980;-58
2024/01/08 12:42:22;;;;;;;23.50;12.90;;;;;;;-3.16;48.84;100070.86;232329;196;136785;-58
2024/01/08 12:47:25;;;;;;;23.20;12.30;;;;;;;-3.33;49.13;100082.33;232103;204;141260;-56
2024/01/08 12:52:29;;;;;;;22.90;12.90;;;;;;;-3.42;49.27;100090.02;231971;203;153202;-57
2024/01/08 12:57:32;;;;;;;24.80;13.10;;;;;;;-3.42;49.31;100095.77;232209;204;137293;-58
2024/01/08 13:02:35;;;;;;;22.40;12.20;;;;;;;-3.41;49.29;100103.57;232198;196;138480;-59
2024/01/08 13:07:39;;;;;;;23.70;12.60;;;;;;;-3.45;49.14;100107.52;232283;204;153340;-58
2024/01/08 13:12:42;;;;;;;21.70;13.00;;;;;;;-3.52;49.21;100110.71;231992;204;138095;-58
2024/01/08 13:17:45;;;;;;;26.30;12.60;;;;;;;-3.56;49.19;100111.55;232020;204;138481;-55
2024/01/08 13:22:49;;;;;;;21.50;12.40;;;;;;;-3.63;49.24;100117.52;232182;201;153791;-56
2024/01/08 13:27:52;;;;;;;21.70;12.40;;;;;;;-3.70;49.43;100123.52;232148;204;139043;-56
2024/01/08 13:32:57;;;;;;;24.40;12.90;;;;;;;-3.73;49.43;100134.39;232171;204;138697;-57
2024/01/08 13:38:00;;;;;;;22.60;12.80;;;;;;;-3.79;49.30;100141.59;232290;204;152926;-55
2024/01/08 13:43:06;;;;;;;24.00;12.50;;;;;;;-3.82;49.34;100150.03;232187;200;137290;-56
2024/01/08 13:48:09;;;;;;;22.70;12.50;;;;;;;-3.87;49.14;100155.70;231679;204;138130;-56
2024/01/08 13:53:13;;;;;;;20.30;12.00;;;;;;;-3.91;49.40;100162.40;231942;204;153266;-57
2024/01/08 13:58:17;;;;;;;21.90;12.30;;;;;;;-3.97;49.47;100171.16;231980;197;138344;-57
2024/01/08 14:03:20;;;;;;;21.90;11.90;;;;;;;-4.04;49.51;100174.52;232035;204;138322;-57
2024/01/08 14:08:24;;;;;;;27.90;12.10;;;;;;;-4.07;49.55;100179.67;232035;201;154152;-55
2024/01/08 14:13:27;;;;;;;21.40;12.80;;;;;;;-4.13;49.72;100183.23;232098;204;138403;-56
2024/01/08 14:18:30;;;;;;;24.80;12.70;;;;;;;-4.19;49.99;100193.34;232078;196;138848;-56
2024/01/08 14:23:34;;;;;;;22.60;12.80;;;;;;;-4.28;50.01;100192.67;232133;204;155016;-57
2024/01/08 14:28:37;;;;;;;25.70;13.10;;;;;;;-4.36;50.12;100203.64;231984;197;138122;-57
2024/01/08 14:33:42;;;;;;;24.40;13.20;;;;;;;-4.42;50.33;100216.02;232193;204;137311;-54
2024/01/08 14:38:46;;;;;;;24.40;13.10;;;;;;;-4.47;50.35;100223.02;232143;203;152206;-56
2024/01/08 14:43:50;;;;;;;27.80;13.40;;;;;;;-4.53;50.73;100231.90;232155;204;139224;-56
2024/01/08 14:48:53;;;;;;;23.80;13.70;;;;;;;-4.64;50.86;100234.65;232083;204;138772;-57
2024/01/08 14:53:56;;;;;;;26.70;13.70;;;;;;;-4.77;51.03;100241.70;231929;198;154642;-58
2024/01/08 14:59:00;;;;;;;25.70;13.20;;;;;;;-4.83;51.35;100248.84;231943;204;139399;-57
2024/01/08 15:04:04;;;;;;;25.90;13.80;;;;;;;-4.89;51.64;100259.79;231920;200;137396;-57
2024/01/08 15:09:10;;;;;;;27.80;13.30;;;;;;;-4.96;51.99;100263.11;231764;197;153287;-56
2024/01/08 15:14:13;;;;;;;26.60;13.90;;;;;;;-5.00;52.09;100266.48;232166;196;137763;-56
2024/01/08 15:19:22;;;;;;;25.60;13.30;;;;;;;-5.01;52.03;100272.35;232057;201;137993;-55
2024/01/08 15:24:26;;;;;;;30.60;14.00;;;;;;;-5.07;52.33;100279.52;231974;203;153465;-55
2024/01/08 15:29:29;;;;;;;29.40;14.50;;;;;;;-5.17;52.43;100289.15;231647;203;138752;-56
2024/01/08 15:34:32;;;;;;;26.60;13.70;;;;;;;-5.25;52.58;100294.00;232085;199;137737;-56
2024/01/08 15:39:35;;;;;;;28.10;14.60;;;;;;;-5.31;52.75;100299.23;232178;199;153945;-55
2024/01/08 15:44:39;;;;;;;26.40;14.50;;;;;;;-5.36;52.89;100307.76;232030;200;142191;-55
2024/01/08 15:49:42;;;;;;;28.70;14.80;;;;;;;-5.44;52.99;100319.33;232207;204;138902;-58
2024/01/08 15:54:46;;;;;;;28.30;14.70;;;;;;;-5.52;53.17;100327.29;231883;197;153215;-55
2024/01/08 15:59:49;;;;;;;26.50;14.60;;;;;;;-5.58;53.50;100335.27;232026;198;138327;-55
2024/01/08 16:04:52;;;;;;;30.30;14.90;;;;;;;-5.60;53.62;100335.56;231903;200;141737;-56
2024/01/08 16:09:57;;;;;;;30.80;15.70;;;;;;;-5.62;53.57;100345.37;232112;204;153848;-57
2024/01/08 16:15:03;;;;;;;29.00;15.10;;;;;;;-5.63;53.57;100357.09;231904;204;138373;-56
2024/01/08 16:20:06;;;;;;;;;;;;;;;-5.67;53.70;100360.80;232219;200;138456;-57
2024/01/08 16:25:09;;;;;;;33.50;17.10;;;;;;;-5.71;53.72;100371.41;232072;201;153443;-56
2024/01/08 16:30:14;;;;;;;38.60;17.90;;;;;;;-5.77;53.82;100379.58;231606;201;138662;-54
2024/01/08 16:35:19;;;;;;;36.40;18.30;;;;;;;-5.80;53.78;100390.20;232151;201;137796;-55
2024/01/08 16:40:23;;;;;;;35.90;18.50;;;;;;;-5.83;53.94;100402.22;232031;197;153297;-56
2024/01/08 16:45:26;;;;;;;39.80;19.30;;;;;;;-5.88;54.09;100416.60;232055;201;138570;-57
2024/01/08 16:50:29;;;;;;;38.90;19.30;;;;;;;-5.99;54.17;100419.97;232166;201;138185;-56
2024/01/08 16:55:33;;;;;;;39.60;19.40;;;;;;;-6.13;54.09;100424.25;232198;201;154606;-58
2024/01/08 17:00:36;;;;;;;43.20;21.60;;;;;;;-6.27;54.17;100435.10;232083;201;138596;-56
2024/01/08 17:05:40;;;;;;;50.20;26.00;;;;;;;-6.37;54.41;100439.48;232265;197;138307;-55
2024/01/08 17:10:43;;;;;;;56.40;24.90;;;;;;;-6.37;54.54;100440.67;232111;197;153132;-57
2024/01/08 17:15:46;;;;;;;53.00;26.40;;;;;;;-6.29;54.40;100446.60;232080;201;138081;-55
2024/01/08 17:20:49;;;;;;;56.00;26.10;;;;;;;-6.19;54.15;100455.52;231760;204;141863;-55
2024/01/08 17:25:53;;;;;;;54.60;26.60;;;;;;;-6.12;54.11;100461.42;232210;204;153134;-55
2024/01/08 17:30:56;;;;;;;49.90;26.20;;;;;;;-6.12;53.99;100463.68;231994;197;139687;-56
2024/01/08 17:36:00;;;;;;;108.00;53.10;;;;;;;-6.13;55.27;100472.80;232067;202;138015;-54
2024/01/08 17:41:03;;;;;;;51.50;24.80;;;;;;;-6.07;53.98;100477.62;231103;201;155990;-55
2024/01/08 17:46:10;;;;;;;53.30;24.70;;;;;;;-6.19;53.46;100482.81;231562;204;138888;-57
2024/01/08 17:51:13;;;;;;;55.90;26.20;;;;;;;-6.38;53.56;100487.27;232164;204;140284;-56
2024/01/08 17:56:16;;;;;;;60.10;27.70;;;;;;;-6.53;53.66;100492.02;232260;204;155187;-56
2024/01/08 18:01:19;;;;;;;61.80;27.70;;;;;;;-6.65;53.82;100499.75;232018;197;138220;-55
2024/01/08 18:06:23;;;;;;;63.40;28.60;;;;;;;-6.72;53.84;100503.17;232183;203;139082;-57
2024/01/08 18:11:26;;;;;;;71.70;31.80;;;;;;;-6.89;53.72;100513.00;232005;204;153209;-55
2024/01/08 18:16:30;;;;;;;75.10;34.30;;;;;;;-7.05;53.66;100514.54;231983;204;138978;-50
2024/01/08 18:21:35;;;;;;;77.70;37.10;;;;;;;-7.11;53.51;100524.17;232156;201;138173;-49
2024/01/08 18:26:38;;;;;;;74.50;36.10;;;;;;;-7.11;53.14;100532.98;232150;204;153411;-52
2024/01/08 18:31:42;;;;;;;72.90;36.00;;;;;;;-7.08;53.07;100545.46;232034;201;138743;-51
2024/01/08 18:36:46;;;;;;;81.90;39.30;;;;;;;-7.12;52.61;100543.77;231236;202;141479;-49
2024/01/08 18:41:50;;;;;;;81.50;38.40;;;;;;;-7.29;52.43;100541.67;231919;204;153293;-49
2024/01/08 18:46:54;;;;;;;86.80;39.00;;;;;;;-7.47;52.58;100549.66;232078;201;141183;-52
2024/01/08 18:51:57;;;;;;;81.60;38.00;;;;;;;-7.60;52.77;100559.23;232158;204;138565;-51
2024/01/08 18:57:00;;;;;;;525.60;301.40;;;;;;;-7.66;55.98;100569.52;232104;204;154942;-52
2024/01/08 19:02:04;;;;;;;90.60;44.20;;;;;;;-7.31;56.81;100566.09;232216;201;138931;-50
2024/01/08 19:07:09;;;;;;;84.60;37.80;;;;;;;-7.48;54.47;100570.85;232043;201;137523;-50
2024/01/08 19:12:14;;;;;;;90.30;40.20;;;;;;;-7.65;54.48;100575.08;232099;204;153272;-49
2024/01/08 19:17:18;;;;;;;84.20;39.30;;;;;;;-7.69;54.69;100589.73;231845;204;138629;-49
2024/01/08 19:22:21;;;;;;;82.70;38.80;;;;;;;-7.68;54.73;100595.48;231993;204;141463;-49
2024/01/08 19:27:25;;;;;;;83.50;38.30;;;;;;;-7.61;54.70;100603.63;232064;200;154200;-51
2024/01/08 19:32:28;;;;;;;302.30;167.90;;;;;;;-7.53;55.59;100609.97;232050;197;138099;-49
2024/01/08 19:37:35;;;;;;;95.70;42.60;;;;;;;-6.77;58.99;100615.48;232156;200;138199;-49
2024/01/08 19:42:38;;;;;;;75.90;36.10;;;;;;;-6.60;55.02;100621.77;232132;204;154915;-49
2024/01/08 19:47:42;;;;;;;78.20;35.10;;;;;;;-6.87;53.75;100626.54;232026;200;139480;-50
2024/01/08 19:52:45;;;;;;;73.40;34.40;;;;;;;-7.09;53.63;100639.11;231984;204;139046;-47
2024/01/08 19:57:48;;;;;;;77.00;36.80;;;;;;;-7.24;53.50;100645.45;232027;198;153578;-49
2024/01/08 20:02:52;;;;;;;90.00;40.70;;;;;;;-7.35;53.33;100651.78;232155;204;138498;-49
2024/01/08 20:07:55;;;;;;;118.00;46.20;;;;;;;-7.54;53.12;100654.37;232155;197;138467;-47
2024/01/08 20:12:59;;;;;;;121.10;49.70;;;;;;;-7.79;53.12;100660.33;232233;204;152880;-47
2024/01/08 20:18:06;;;;;;;113.20;46.70;;;;;;;-7.96;53.40;100666.25;231951;201;139954;-49
2024/01/08 20:23:09;;;;;;;96.00;42.50;;;;;;;-7.99;53.63;100674.55;232086;204;138317;-49
2024/01/08 20:28:13;;;;;;;293.50;167.40;;;;;;;-8.06;54.23;100672.75;232091;204;153158;-47
2024/01/08 20:33:16;;;;;;;93.50;43.60;;;;;;;-7.84;57.24;100676.88;232103;197;139020;-49
2024/01/08 20:38:20;;;;;;;86.10;39.70;;;;;;;-7.60;54.76;100678.98;232306;204;139071;-47
2024/01/08 20:43:24;;;;;;;59.90;28.90;;;;;;;-7.71;53.79;100686.30;231997;204;153858;-49
2024/01/08 20:48:27;;;;;;;163.80;74.60;;;;;;;-7.81;54.78;100688.32;232039;203;142040;-50
2024/01/08 20:53:30;;;;;;;83.30;37.40;;;;;;;-7.73;55.13;100691.22;232041;204;138399;-47
2024/01/08 20:58:34;;;;;;;81.00;36.10;;;;;;;-7.90;54.04;100699.89;231987;202;153117;-47
2024/01/08 21:03:37;;;;;;;85.20;36.60;;;;;;;-8.08;54.14;100701.43;232043;204;138448;-49
2024/01/08 21:08:41;;;;;;;97.90;39.40;;;;;;;-8.24;54.27;100702.83;231795;204;139249;-47
2024/01/08 21:13:45;;;;;;;101.70;39.90;;;;;;;-8.30;54.42;100704.65;232175;201;155030;-51
2024/01/08 21:18:48;;;;;;;88.60;36.50;;;;;;;-8.34;54.35;100704.34;232134;198;138207;-50
2024/01/08 21:23:52;;;;;;;79.30;35.20;;;;;;;-8.35;54.30;100703.09;232055;202;140417;-49
2024/01/08 21:28:55;;;;;;;71.90;33.40;;;;;;;-8.31;54.23;100706.51;232074;204;154018;-49
2024/01/08 21:33:58;;;;;;;80.70;34.90;;;;;;;-8.22;54.23;100697.76;232166;201;137734;-48
2024/01/08 21:39:03;;;;;;;90.90;38.40;;;;;;;-8.17;53.91;100700.71;232292;201;138348;-51
2024/01/08 21:44:06;;;;;;;78.40;35.50;;;;;;;-8.25;53.67;100698.65;232388;204;153629;-47
2024/01/08 21:49:09;;;;;;;89.80;35.10;;;;;;;-8.35;53.84;100698.10;232017;201;138467;-46
2024/01/08 21:54:13;;;;;;;69.50;31.40;;;;;;;-8.40;53.98;100702.08;232080;201;138820;-47
2024/01/08 21:59:16;;;;;;;73.20;31.60;;;;;;;-8.55;54.04;100704.38;231826;201;153121;-48
2024/01/08 22:04:19;;;;;;;69.40;30.80;;;;;;;-8.58;54.43;100710.80;232160;204;138533;-47
2024/01/08 22:09:22;;;;;;;64.90;29.40;;;;;;;-8.57;54.30;100722.02;232223;197;138497;-48
2024/01/08 22:14:25;;;;;;;67.60;29.70;;;;;;;-8.58;54.25;100729.55;232102;204;153785;-50
2024/01/08 22:19:29;;;;;;;65.70;28.70;;;;;;;-8.58;54.12;100740.55;232208;204;138303;-49
2024/01/08 22:24:36;;;;;;;65.40;28.60;;;;;;;-8.55;53.96;100746.15;232071;200;138675;-52
2024/01/08 22:29:40;;;;;;;73.70;29.40;;;;;;;-8.56;53.70;100750.96;232174;204;155044;-53
2024/01/08 22:34:43;;;;;;;62.90;26.90;;;;;;;-8.62;53.59;100756.22;232103;201;137949;-50
2024/01/08 22:39:47;;;;;;;63.60;26.90;;;;;;;-8.71;53.54;100751.85;232230;201;138226;-47
2024/01/08 22:44:50;;;;;;;66.20;27.10;;;;;;;-8.81;53.59;100759.48;232299;204;153938;-47
2024/01/08 22:49:53;;;;;;;59.20;23.10;;;;;;;-8.96;53.62;100756.30;232262;197;138337;-50
2024/01/08 22:54:57;;;;;;;59.00;24.60;;;;;;;-9.10;53.89;100763.94;231847;201;140652;-48